createdAt,value
2022-09-11T00:02:46.864Z,0.40
2022-09-11T00:06:50.232Z,0.50
2022-09-11T00:10:53.188Z,0.60
2022-09-11T00:14:56.371Z,0.60
2022-09-11T00:19:02.987Z,0.60
2022-09-11T00:23:07.070Z,0.70
2022-09-11T00:27:10.501Z,0.70
2022-09-11T00:31:15.659Z,0.65
2022-09-11T00:35:20.116Z,0.60
2022-09-11T00:39:23.279Z,0.60
2022-09-11T00:43:27.747Z,0.70
2022-09-11T00:47:32.234Z,0.82
2022-09-11T00:51:37.884Z,0.80
2022-09-11T00:55:44.542Z,0.90
2022-09-11T00:59:49.389Z,0.60
2022-09-11T01:03:52.603Z,0.80
2022-09-11T01:07:57.681Z,0.90
2022-09-11T01:12:06.783Z,0.70
2022-09-11T01:16:16.294Z,0.65
2022-09-11T01:20:37.208Z,0.70
2022-09-11T01:24:56.654Z,0.73
2022-09-11T01:29:07.525Z,0.55
2022-09-11T01:33:22.999Z,0.60
2022-09-11T01:37:32.152Z,0.70
2022-09-11T01:41:41.548Z,0.70
2022-09-11T01:45:48.449Z,0.60
2022-09-11T01:49:57.764Z,0.70
2022-09-11T01:54:08.668Z,0.60
2022-09-11T01:58:15.927Z,0.70
2022-09-11T02:02:27.561Z,0.63
2022-09-11T02:06:34.902Z,0.60
2022-09-11T02:10:44.379Z,0.50
2022-09-11T02:14:49.915Z,0.68
2022-09-11T02:19:00.864Z,0.75
2022-09-11T02:23:04.027Z,0.60
2022-09-11T02:27:13.144Z,1.00
2022-09-11T02:31:19.980Z,0.77
2022-09-11T02:35:34.435Z,0.75
2022-09-11T02:40:01.722Z,0.80
2022-09-11T02:44:14.790Z,0.80
2022-09-11T02:48:37.500Z,0.90
2022-09-11T02:52:50.495Z,0.98
2022-09-11T02:57:03.386Z,0.82
2022-09-11T03:01:10.180Z,0.70
2022-09-11T03:05:15.738Z,0.80
2022-09-11T03:09:21.257Z,0.88
2022-09-11T03:13:28.227Z,0.80
2022-09-11T03:17:31.274Z,0.80
2022-09-11T03:21:35.920Z,1.00
2022-09-11T03:25:41.154Z,0.93
2022-09-11T03:29:45.116Z,0.75
2022-09-11T03:33:48.155Z,0.77
2022-09-11T03:37:51.934Z,0.80
2022-09-11T03:41:56.759Z,0.90
2022-09-11T03:46:00.619Z,0.82
2022-09-11T03:50:03.794Z,0.90
2022-09-11T03:54:08.890Z,0.80
2022-09-11T03:58:14.181Z,0.90
2022-09-11T04:02:19.666Z,0.70
2022-09-11T04:06:22.907Z,0.90
2022-09-11T04:10:25.998Z,0.90
2022-09-11T04:14:30.808Z,1.30
2022-09-11T04:18:37.820Z,0.95
2022-09-11T04:22:42.119Z,1.00
2022-09-11T04:26:45.546Z,0.80
2022-09-11T04:30:57.195Z,0.80
2022-09-11T04:35:01.792Z,0.90
2022-09-11T04:39:12.255Z,0.70
2022-09-11T04:43:17.417Z,0.80
2022-09-11T04:47:22.591Z,0.73
2022-09-11T04:51:29.207Z,0.90
2022-09-11T04:55:33.653Z,0.98
2022-09-11T04:59:36.898Z,1.30
2022-09-11T05:03:45.558Z,1.00
2022-09-11T05:07:50.364Z,1.10
2022-09-11T05:11:54.548Z,1.15
2022-09-11T05:16:02.661Z,1.17
2022-09-11T05:20:11.925Z,1.35
2022-09-11T05:24:15.464Z,1.00
2022-09-11T05:28:18.835Z,0.90
2022-09-11T05:32:21.887Z,1.10
2022-09-11T05:36:26.434Z,0.95
2022-09-11T05:40:29.597Z,1.20
2022-09-11T05:44:33.973Z,1.30
2022-09-11T05:48:38.603Z,1.10
2022-09-11T05:52:43.274Z,0.90
2022-09-11T05:56:46.367Z,1.10
2022-09-11T06:01:05.154Z,1.20
2022-09-11T06:05:10.922Z,0.90
2022-09-11T06:09:16.476Z,0.85
2022-09-11T06:13:19.943Z,0.70
2022-09-11T06:17:26.535Z,0.95
2022-09-11T06:21:30.503Z,1.10
2022-09-11T06:25:45.298Z,0.90
2022-09-11T06:29:49.369Z,0.80
2022-09-11T06:33:55.751Z,0.80
2022-09-11T06:37:58.748Z,0.90
2022-09-11T06:42:04.503Z,0.80
2022-09-11T06:46:15.662Z,1.00
2022-09-11T06:50:18.729Z,1.00
2022-09-11T06:54:39.028Z,0.98
2022-09-11T06:58:48.736Z,1.02
2022-09-11T07:02:53.019Z,0.88
2022-09-11T07:06:56.415Z,1.00
2022-09-11T07:11:04.179Z,0.90
2022-09-11T07:15:12.512Z,0.90
2022-09-11T07:19:15.636Z,1.00
2022-09-11T07:23:19.388Z,1.05
2022-09-11T07:27:22.962Z,1.10
2022-09-11T07:31:30.241Z,0.90
2022-09-11T07:35:38.147Z,1.00
2022-09-11T07:39:41.824Z,0.93
2022-09-11T07:43:55.783Z,1.02
2022-09-11T07:48:03.233Z,0.85
2022-09-11T07:52:07.692Z,1.08
2022-09-11T07:56:23.238Z,1.20
2022-09-11T08:00:27.332Z,1.10
2022-09-11T08:04:41.395Z,1.00
2022-09-11T08:08:45.908Z,1.20
2022-09-11T08:12:49.060Z,1.00
2022-09-11T08:16:53.583Z,0.93
2022-09-11T08:21:04.540Z,1.02
2022-09-11T08:25:08.057Z,0.95
2022-09-11T08:29:11.720Z,0.80
2022-09-11T08:33:14.944Z,1.02
2022-09-11T08:37:19.969Z,1.00
2022-09-11T08:41:33.596Z,0.82
2022-09-11T08:45:40.435Z,0.90
2022-09-11T08:49:45.197Z,0.80
2022-09-11T08:53:51.495Z,0.90
2022-09-11T08:58:05.569Z,0.80
2022-09-11T09:02:28.883Z,0.80
2022-09-11T09:06:51.481Z,0.75
2022-09-11T09:11:05.459Z,0.90
2022-09-11T09:15:29.363Z,0.77
2022-09-11T09:19:40.932Z,0.63
2022-09-11T09:23:49.908Z,0.80
2022-09-11T09:28:00.590Z,0.80
2022-09-11T09:32:08.211Z,0.90
2022-09-11T09:36:21.035Z,1.30
2022-09-11T09:40:26.862Z,0.77
2022-09-11T09:44:46.352Z,0.80
2022-09-11T09:48:49.416Z,0.80
2022-09-11T09:52:55.330Z,0.82
2022-09-11T09:57:03.526Z,0.80
2022-09-11T10:01:45.307Z,1.00
2022-09-11T10:05:50.531Z,1.00
2022-09-11T10:10:03.165Z,0.90
2022-09-11T10:14:08.948Z,0.82
2022-09-11T10:18:42.992Z,0.80
2022-09-11T10:22:47.370Z,0.90
2022-09-11T10:26:53.372Z,0.90
2022-09-11T10:31:00.230Z,1.00
2022-09-11T10:35:10.384Z,1.20
2022-09-11T10:39:20.742Z,1.30
2022-09-11T10:43:27.665Z,1.33
2022-09-11T10:47:33.849Z,1.30
2022-09-11T10:51:43.082Z,1.17
2022-09-11T10:55:58.089Z,1.35
2022-09-11T11:00:13.581Z,1.20
2022-09-11T11:04:17.100Z,1.08
2022-09-11T11:08:58.826Z,1.20
2022-09-11T11:13:15.789Z,1.38
2022-09-11T11:17:29.741Z,1.00
2022-09-11T11:21:49.289Z,1.20
2022-09-11T11:26:07.413Z,1.10
2022-09-11T11:30:15.841Z,1.08
2022-09-11T11:34:31.226Z,1.20
2022-09-11T11:38:40.840Z,1.20
2022-09-11T11:42:53.997Z,1.20
2022-09-11T11:47:05.419Z,1.00
2022-09-11T11:51:12.603Z,1.20
2022-09-11T11:55:18.748Z,1.00
2022-09-11T11:59:31.916Z,1.00
2022-09-11T12:03:40.842Z,0.90
2022-09-11T12:07:47.371Z,0.90
2022-09-11T12:11:54.045Z,0.80
2022-09-11T12:16:12.089Z,0.70
2022-09-11T12:20:30.776Z,0.70
2022-09-11T12:24:58.669Z,0.63
2022-09-11T12:29:35.790Z,0.60
2022-09-11T12:34:17.491Z,0.60
2022-09-11T12:38:26.923Z,0.50
2022-09-11T12:42:49.066Z,0.52
2022-09-11T12:47:12.569Z,0.52
2022-09-11T12:51:22.378Z,0.55
2022-09-11T12:55:34.361Z,0.57
2022-09-11T12:59:41.088Z,0.50
2022-09-11T13:03:53.847Z,0.40
2022-09-11T13:08:04.294Z,0.40
2022-09-11T13:12:40.982Z,0.22
2022-09-11T13:16:46.158Z,0.40
2022-09-11T13:20:59.528Z,0.20
2022-09-11T13:25:12.442Z,0.32
2022-09-11T13:29:15.792Z,0.30
2022-09-11T13:33:23.984Z,0.40
2022-09-11T13:37:38.019Z,0.40
2022-09-11T13:41:45.798Z,0.50
2022-09-11T13:45:49.267Z,0.40
2022-09-11T13:49:55.293Z,0.40
2022-09-11T13:54:06.013Z,0.30
2022-09-11T13:58:24.384Z,0.30
2022-09-11T14:02:46.957Z,0.50
2022-09-11T14:06:50.303Z,0.50
2022-09-11T14:10:56.612Z,0.50
2022-09-11T14:15:08.738Z,0.40
2022-09-11T14:19:18.111Z,0.40
2022-09-11T14:23:25.531Z,0.50
2022-09-11T14:27:39.526Z,0.40
2022-09-11T14:31:44.716Z,0.47
2022-09-11T14:35:50.315Z,0.35
2022-09-11T14:39:57.028Z,0.25
2022-09-11T14:44:00.673Z,0.30
2022-09-11T14:48:11.876Z,0.32
2022-09-11T14:52:17.335Z,0.40
2022-09-11T14:56:20.565Z,0.40
2022-09-11T15:00:27.356Z,0.50
2022-09-11T15:04:32.281Z,0.60
2022-09-11T15:08:35.322Z,0.50
2022-09-11T15:12:38.283Z,0.40
2022-09-11T15:16:42.083Z,0.40
2022-09-11T15:20:46.498Z,0.43
2022-09-11T15:24:49.850Z,0.40
2022-09-11T15:28:53.417Z,0.45
2022-09-11T15:32:56.706Z,0.50
2022-09-11T15:37:01.250Z,0.50
2022-09-11T15:41:05.609Z,0.50
2022-09-11T15:45:10.340Z,0.70
2022-09-11T15:49:13.317Z,0.60
2022-09-11T15:53:17.726Z,0.50
2022-09-11T15:57:20.920Z,1.20
2022-09-11T16:01:25.908Z,0.65
2022-09-11T16:05:29.809Z,0.57
2022-09-11T16:09:35.307Z,0.50
2022-09-11T16:13:40.697Z,0.70
2022-09-11T16:17:44.939Z,0.80
2022-09-11T16:21:48.781Z,0.50
2022-09-11T16:25:53.858Z,0.70
2022-09-11T16:30:32.219Z,0.88
2022-09-11T16:34:20.044Z,0.90
2022-09-11T16:38:24.071Z,0.80
2022-09-11T16:42:28.875Z,0.70
2022-09-11T16:46:33.401Z,0.90
2022-09-11T16:50:36.533Z,0.80
2022-09-11T16:54:39.862Z,1.02
2022-09-11T16:58:45.240Z,0.95
2022-09-11T17:02:48.615Z,0.98
2022-09-11T17:06:51.888Z,1.08
2022-09-11T17:10:57.431Z,1.13
2022-09-11T17:15:03.129Z,1.05
2022-09-11T17:19:08.263Z,1.10
2022-09-11T17:23:12.443Z,1.00
2022-09-11T17:27:15.566Z,1.85
2022-09-11T17:31:20.333Z,1.10
2022-09-11T17:35:23.938Z,1.10
2022-09-11T17:39:27.027Z,0.95
2022-09-11T17:43:30.119Z,1.92
2022-09-11T17:47:36.118Z,1.10
2022-09-11T17:51:39.337Z,0.80
2022-09-11T17:55:42.394Z,0.82
2022-09-11T17:59:45.593Z,0.98
2022-09-11T18:03:53.770Z,0.93
2022-09-11T18:08:00.054Z,0.90
2022-09-11T18:12:04.176Z,1.08
2022-09-11T18:16:11.367Z,1.05
2022-09-11T18:20:17.759Z,0.93
2022-09-11T18:24:21.258Z,0.90
2022-09-11T18:28:24.380Z,0.95
2022-09-11T18:32:27.479Z,1.10
2022-09-11T18:36:32.724Z,1.00
2022-09-11T18:40:35.801Z,1.10
2022-09-11T18:44:38.763Z,1.17
2022-09-11T18:48:44.409Z,1.10
2022-09-11T18:52:50.819Z,1.00
2022-09-11T18:56:54.052Z,1.10
2022-09-11T19:00:57.485Z,1.40
2022-09-11T19:05:01.416Z,1.00
2022-09-11T19:09:07.749Z,0.90
2022-09-11T19:13:10.912Z,1.00
2022-09-11T19:17:13.914Z,1.20
2022-09-11T19:21:20.842Z,0.95
2022-09-11T19:25:28.007Z,0.90
2022-09-11T19:29:31.203Z,1.17
2022-09-11T19:33:35.600Z,1.00
2022-09-11T19:37:39.324Z,1.00
2022-09-11T19:41:43.830Z,0.93
2022-09-11T19:45:46.808Z,0.82
2022-09-11T19:49:50.328Z,0.82
2022-09-11T19:53:56.144Z,1.10
2022-09-11T19:58:00.983Z,0.98
2022-09-11T20:02:04.246Z,1.17
2022-09-11T20:06:08.071Z,1.25
2022-09-11T20:10:11.189Z,1.20
2022-09-11T20:14:15.602Z,1.20
2022-09-11T20:18:18.655Z,1.45
2022-09-11T20:22:22.178Z,1.20
2022-09-11T20:26:27.384Z,1.30
2022-09-11T20:30:33.799Z,1.15
2022-09-11T20:34:36.795Z,1.40
2022-09-11T20:38:40.395Z,1.10
2022-09-11T20:42:43.587Z,0.93
2022-09-11T20:46:48.386Z,1.23
2022-09-11T20:50:52.217Z,1.20
2022-09-11T20:54:55.419Z,1.55
2022-09-11T20:59:00.016Z,1.50
2022-09-11T21:03:05.321Z,1.48
2022-09-11T21:07:08.408Z,1.40
2022-09-11T21:11:13.750Z,1.38
2022-09-11T21:15:16.923Z,1.60
2022-09-11T21:19:21.279Z,1.50
2022-09-11T21:23:24.927Z,1.83
2022-09-11T21:27:28.182Z,1.35
2022-09-11T21:31:31.437Z,1.50
2022-09-11T21:35:37.309Z,1.70
2022-09-11T21:39:41.947Z,1.48
2022-09-11T21:43:45.417Z,1.70
2022-09-11T21:47:51.897Z,1.35
2022-09-11T21:51:59.868Z,1.58
2022-09-11T21:56:03.695Z,1.90
2022-09-11T22:00:09.878Z,1.67
2022-09-11T22:04:13.291Z,1.85
2022-09-11T22:08:19.552Z,1.80
2022-09-11T22:12:22.707Z,1.63
2022-09-11T22:16:26.094Z,1.90
2022-09-11T22:20:29.221Z,1.52
2022-09-11T22:24:33.750Z,2.00
2022-09-11T22:28:37.488Z,1.60
2022-09-11T22:32:40.470Z,2.05
2022-09-11T22:36:43.503Z,1.90
2022-09-11T22:40:53.257Z,1.90
2022-09-11T22:44:56.287Z,1.90
2022-09-11T22:48:59.323Z,2.13
2022-09-11T22:53:02.463Z,2.03
2022-09-11T22:57:07.082Z,2.00
2022-09-11T23:01:12.663Z,1.98
2022-09-11T23:05:33.047Z,2.30
2022-09-11T23:09:38.414Z,2.00
2022-09-11T23:13:43.757Z,2.05
2022-09-11T23:17:46.955Z,1.85
2022-09-11T23:21:51.494Z,1.95
2022-09-11T23:25:54.663Z,1.83
2022-09-11T23:29:59.049Z,2.05
2022-09-11T23:34:03.712Z,1.70
2022-09-11T23:38:07.186Z,2.10
2022-09-11T23:42:10.164Z,2.10
2022-09-11T23:46:14.867Z,2.05
2022-09-11T23:50:18.460Z,1.90
2022-09-11T23:54:22.027Z,2.17
2022-09-11T23:58:25.571Z,2.00
